This is the latest recevied weather packets stored in our database for station/object KQ7A. If no packets are shown the sender has not sent any weather packets the latest 10 day(s).
| Time | Temp. | Humidity | Pressure | Rain* | Wind** | Luminosity | Snow |
|---|---|---|---|---|---|---|---|
| 1777360941 | 6.11° C | 72% | 1019.2 hPa | 0 mm | - | 0 W/m² | - |
| 1777360640 | 6.11° C | 72% | 1019.1 hPa | 0 mm | - | 0 W/m² | - |
| 1777360336 | 6.11° C | 75% | 1019 hPa | 0 mm | - | 0 W/m² | - |
| 1777360033 | 6.11° C | 75% | 1019 hPa | 0 mm | - | 0 W/m² | - |
| 1777359730 | 6.67° C | 73% | 1018.9 hPa | 0 mm | - | 0 W/m² | - |
| 1777359427 | 6.67° C | 68% | 1018.6 hPa | 0 mm | - | 0 W/m² | - |
| 1777358821 | 6.67° C | 65% | 1018.8 hPa | 0 mm | - | 0 W/m² | - |
| 1777358216 | 7.22° C | 61% | 1018.5 hPa | 0 mm | - | 0 W/m² | - |
| 1777357914 | 7.22° C | 63% | 1018.4 hPa | 0 mm | - | 0 W/m² | - |
| 1777357611 | 7.78° C | 61% | 1018.3 hPa | 0 mm | - | 0 W/m² | - |
| 1777357307 | 7.78° C | 60% | 1018.9 hPa | 0 mm | - | 0 W/m² | - |
| 1777357004 | 7.78° C | 60% | 1018.6 hPa | 0 mm | - | 0 W/m² | - |
| 1777356702 | 7.78° C | 59% | 1018.6 hPa | 0 mm | - | 0 W/m² | - |
| 1777356399 | 7.78° C | 60% | 1018.6 hPa | 0 mm | - | 0 W/m² | - |
| 1777356095 | 7.22° C | 60% | 1018.6 hPa | 0 mm | - | 0 W/m² | - |
| 1777355792 | 7.22° C | 60% | 1018.5 hPa | 0 mm | - | 0 W/m² | - |
| 1777355489 | 6.67° C | 61% | 1018.6 hPa | 0 mm | - | 0 W/m² | - |
| 1777355186 | 6.11° C | 64% | 1018.5 hPa | 0 mm | - | 0 W/m² | - |
| 1777354882 | 6.11° C | 66% | 1018.9 hPa | 0 mm | - | 0 W/m² | - |
| 1777354579 | 5.56° C | 69% | 1018.9 hPa | 0 mm | - | 0 W/m² | - |
| 1777354274 | 6.11° C | 71% | 1018.9 hPa | 0 mm | - | 0 W/m² | - |
| 1777353972 | 6.67° C | 59% | 1018.4 hPa | 0 mm | - | 0 W/m² | - |
| 1777353668 | 6.11° C | 59% | 1018.4 hPa | 0 mm | - | 0 W/m² | - |
| 1777353366 | 6.11° C | 62% | 1018.4 hPa | 0 mm | - | 0 W/m² | - |
| 1777353063 | 6.11° C | 61% | 1018.4 hPa | 0 mm | - | 0 W/m² | - |
* Rain latest hour (hover to see other rain measurements)
** Current wind speed in m/s (hover to see current wind gust speed)